Airfield :
LOGIN :

Register | Disclaimer

   EN    FR    IT 

 










Legend :    VFR   Marginal VFR   IFR   Intensive IFR   Very Intensive IFR
Visi :
Ceiling :
>= 8 km
>= 3000ft
5 to 8 km
1000 to 3000 ft
1500m to 5 km
500 to 1000 ft
800 to 1500m
200 to 500 ft
< 800m
< 200 ft
Symbols :   Thunderstorms  Fog  Heavy snow  Heavy precipitations  Wind > 20 kt
SIGMETs :     Misc.  Thunderstorms  Icing  Turbulence  Mountain Waves  Volcanic Ashes






- Airport Elevation : 1411 ft
- IATA code : ZHI


LSZG - Grenchen

CURRENT METAR :
  • 260120Z AUTO 21005KT 9999 BKN060 M00/M01 Q1017 RESN

EXPIRED METARs :
  • 260050Z AUTO 22005KT 9999 FEW032 SCT050 M01/M01 Q1017 RESN
  • 260020Z AUTO 23003KT 9999 -SN SCT055 SCT065 M01/M01 Q1016
  • 252350Z AUTO 21004KT 9999 FEW030 BKN050 BKN060 M01/M01 Q1016 RESN
  • 252320Z AUTO 21005KT 7000 -SN SCT032 M00/M01 Q1016
  • 252250Z AUTO 23005KT 3700 -SN FEW070 M00/M01 Q1015

Expired Forecast.
ATIS : +41 32 396 96 33



MET'MAP, your aeronautical weather chart ! - Copyright ORBIFLY December 2007 - Disclaimer

ORBIFLY MET'MAP TEAM :

Programming & Development : Alexandra Zaïnal
Concept & original design : Baudouin d'Aumeries
Assistance for programming : Marc-Olivier Méhu
Technical & hardware support : Manuel Goepfert

Contact : metmap@orbifly.com




SOURCES & CREDITS :

   NOAA